sensor_id;sensor_type;location;lat;lon;timestamp;P1;durP1;ratioP1;P2;durP2;ratioP2
15716;SDS011;7960;50.908;4.204;2022-12-29T00:02:01;3.40;;;2.50;;
15716;SDS011;7960;50.908;4.204;2022-12-29T00:04:28;3.97;;;2.53;;
15716;SDS011;7960;50.908;4.204;2022-12-29T00:06:56;2.07;;;1.83;;
15716;SDS011;7960;50.908;4.204;2022-12-29T00:09:25;3.03;;;2.13;;
15716;SDS011;7960;50.908;4.204;2022-12-29T00:11:52;2.33;;;1.77;;
15716;SDS011;7960;50.908;4.204;2022-12-29T00:14:19;4.97;;;1.93;;
15716;SDS011;7960;50.908;4.204;2022-12-29T00:17:04;4.20;;;2.17;;
15716;SDS011;7960;50.908;4.204;2022-12-29T00:19:30;2.13;;;1.90;;
15716;SDS011;7960;50.908;4.204;2022-12-29T00:22:16;2.17;;;1.57;;
15716;SDS011;7960;50.908;4.204;2022-12-29T00:25:01;1.90;;;1.70;;
15716;SDS011;7960;50.908;4.204;2022-12-29T00:27:46;2.23;;;1.60;;
15716;SDS011;7960;50.908;4.204;2022-12-29T00:30:30;1.47;;;1.27;;
15716;SDS011;7960;50.908;4.204;2022-12-29T00:33:15;2.70;;;1.47;;
15716;SDS011;7960;50.908;4.204;2022-12-29T00:35:57;1.97;;;1.30;;
15716;SDS011;7960;50.908;4.204;2022-12-29T00:38:28;2.10;;;1.37;;
15716;SDS011;7960;50.908;4.204;2022-12-29T00:41:14;2.00;;;1.30;;
15716;SDS011;7960;50.908;4.204;2022-12-29T00:43:58;3.67;;;1.50;;
15716;SDS011;7960;50.908;4.204;2022-12-29T00:46:31;2.47;;;1.63;;
15716;SDS011;7960;50.908;4.204;2022-12-29T00:48:58;3.67;;;1.53;;
15716;SDS011;7960;50.908;4.204;2022-12-29T00:51:43;3.40;;;1.70;;
15716;SDS011;7960;50.908;4.204;2022-12-29T00:54:11;3.60;;;1.60;;
15716;SDS011;7960;50.908;4.204;2022-12-29T00:56:38;3.60;;;1.67;;
15716;SDS011;7960;50.908;4.204;2022-12-29T00:59:06;3.37;;;1.33;;
15716;SDS011;7960;50.908;4.204;2022-12-29T01:01:34;3.50;;;1.50;;
15716;SDS011;7960;50.908;4.204;2022-12-29T01:04:02;1.20;;;1.10;;
15716;SDS011;7960;50.908;4.204;2022-12-29T01:06:30;3.07;;;1.40;;
15716;SDS011;7960;50.908;4.204;2022-12-29T01:08:57;2.50;;;1.40;;
15716;SDS011;7960;50.908;4.204;2022-12-29T01:11:43;5.87;;;2.00;;
15716;SDS011;7960;50.908;4.204;2022-12-29T01:14:09;3.40;;;1.43;;
15716;SDS011;7960;50.908;4.204;2022-12-29T01:16:36;7.40;;;1.63;;
15716;SDS011;7960;50.908;4.204;2022-12-29T01:19:03;2.57;;;1.33;;
15716;SDS011;7960;50.908;4.204;2022-12-29T01:21:30;3.13;;;1.87;;
15716;SDS011;7960;50.908;4.204;2022-12-29T01:23:58;2.27;;;1.43;;
15716;SDS011;7960;50.908;4.204;2022-12-29T01:26:25;2.57;;;1.40;;
15716;SDS011;7960;50.908;4.204;2022-12-29T01:28:53;1.40;;;1.17;;
15716;SDS011;7960;50.908;4.204;2022-12-29T01:31:20;3.77;;;1.30;;
15716;SDS011;7960;50.908;4.204;2022-12-29T01:33:46;2.83;;;1.23;;
15716;SDS011;7960;50.908;4.204;2022-12-29T01:36:14;1.87;;;1.50;;
15716;SDS011;7960;50.908;4.204;2022-12-29T01:38:43;3.57;;;1.70;;
15716;SDS011;7960;50.908;4.204;2022-12-29T01:41:11;2.37;;;1.67;;
15716;SDS011;7960;50.908;4.204;2022-12-29T01:43:40;3.93;;;1.37;;
15716;SDS011;7960;50.908;4.204;2022-12-29T01:46:09;5.83;;;1.87;;
15716;SDS011;7960;50.908;4.204;2022-12-29T01:48:40;2.93;;;1.60;;
15716;SDS011;7960;50.908;4.204;2022-12-29T01:51:08;2.30;;;1.23;;
15716;SDS011;7960;50.908;4.204;2022-12-29T01:53:35;2.73;;;1.37;;
15716;SDS011;7960;50.908;4.204;2022-12-29T01:56:04;5.70;;;1.60;;
15716;SDS011;7960;50.908;4.204;2022-12-29T01:58:37;2.33;;;1.50;;
15716;SDS011;7960;50.908;4.204;2022-12-29T02:01:04;1.90;;;1.30;;
15716;SDS011;7960;50.908;4.204;2022-12-29T02:03:33;2.53;;;1.40;;
15716;SDS011;7960;50.908;4.204;2022-12-29T02:06:02;2.97;;;1.30;;
15716;SDS011;7960;50.908;4.204;2022-12-29T02:08:33;4.43;;;1.30;;
15716;SDS011;7960;50.908;4.204;2022-12-29T02:11:00;2.23;;;1.23;;
15716;SDS011;7960;50.908;4.204;2022-12-29T02:13:27;2.70;;;0.90;;
15716;SDS011;7960;50.908;4.204;2022-12-29T02:15:56;1.10;;;1.00;;
15716;SDS011;7960;50.908;4.204;2022-12-29T02:18:37;2.10;;;0.90;;
15716;SDS011;7960;50.908;4.204;2022-12-29T02:21:32;1.53;;;0.90;;
15716;SDS011;7960;50.908;4.204;2022-12-29T02:24:30;2.90;;;1.23;;
15716;SDS011;7960;50.908;4.204;2022-12-29T02:27:24;2.20;;;1.10;;
15716;SDS011;7960;50.908;4.204;2022-12-29T02:30:12;2.00;;;0.77;;
15716;SDS011;7960;50.908;4.204;2022-12-29T02:32:46;1.97;;;1.03;;
15716;SDS011;7960;50.908;4.204;2022-12-29T02:35:15;2.23;;;1.10;;
15716;SDS011;7960;50.908;4.204;2022-12-29T02:37:49;5.37;;;1.00;;
15716;SDS011;7960;50.908;4.204;2022-12-29T02:40:22;0.80;;;0.80;;
15716;SDS011;7960;50.908;4.204;2022-12-29T02:42:51;2.10;;;1.20;;
15716;SDS011;7960;50.908;4.204;2022-12-29T02:45:26;2.17;;;1.03;;
15716;SDS011;7960;50.908;4.204;2022-12-29T02:47:57;2.77;;;1.23;;
15716;SDS011;7960;50.908;4.204;2022-12-29T02:50:25;2.70;;;0.80;;
15716;SDS011;7960;50.908;4.204;2022-12-29T02:52:54;2.57;;;1.10;;
15716;SDS011;7960;50.908;4.204;2022-12-29T02:55:24;1.53;;;0.70;;
15716;SDS011;7960;50.908;4.204;2022-12-29T02:58:03;2.07;;;0.87;;
15716;SDS011;7960;50.908;4.204;2022-12-29T03:00:32;2.63;;;0.83;;
15716;SDS011;7960;50.908;4.204;2022-12-29T03:03:10;1.40;;;0.80;;
15716;SDS011;7960;50.908;4.204;2022-12-29T03:05:43;4.23;;;0.87;;
15716;SDS011;7960;50.908;4.204;2022-12-29T03:08:18;4.17;;;1.40;;
15716;SDS011;7960;50.908;4.204;2022-12-29T03:10:55;5.60;;;1.73;;
15716;SDS011;7960;50.908;4.204;2022-12-29T03:13:28;2.20;;;0.87;;
15716;SDS011;7960;50.908;4.204;2022-12-29T03:16:15;4.33;;;1.37;;
15716;SDS011;7960;50.908;4.204;2022-12-29T03:18:47;7.13;;;1.40;;
15716;SDS011;7960;50.908;4.204;2022-12-29T03:21:16;2.17;;;1.10;;
15716;SDS011;7960;50.908;4.204;2022-12-29T03:23:44;2.67;;;1.00;;
15716;SDS011;7960;50.908;4.204;2022-12-29T03:26:14;5.43;;;0.93;;
15716;SDS011;7960;50.908;4.204;2022-12-29T03:28:44;3.53;;;1.10;;
15716;SDS011;7960;50.908;4.204;2022-12-29T03:31:12;5.87;;;1.40;;
15716;SDS011;7960;50.908;4.204;2022-12-29T03:33:40;0.97;;;0.60;;
15716;SDS011;7960;50.908;4.204;2022-12-29T03:36:11;0.90;;;0.80;;
15716;SDS011;7960;50.908;4.204;2022-12-29T03:38:40;5.77;;;1.37;;
15716;SDS011;7960;50.908;4.204;2022-12-29T03:41:08;1.40;;;0.50;;
15716;SDS011;7960;50.908;4.204;2022-12-29T03:43:37;6.03;;;0.97;;
15716;SDS011;7960;50.908;4.204;2022-12-29T03:46:04;2.63;;;1.00;;
15716;SDS011;7960;50.908;4.204;2022-12-29T03:48:31;1.97;;;0.90;;
15716;SDS011;7960;50.908;4.204;2022-12-29T03:50:58;2.20;;;0.90;;
15716;SDS011;7960;50.908;4.204;2022-12-29T03:53:27;4.07;;;0.97;;
15716;SDS011;7960;50.908;4.204;2022-12-29T03:55:53;3.07;;;1.13;;
15716;SDS011;7960;50.908;4.204;2022-12-29T03:58:20;4.50;;;1.10;;
15716;SDS011;7960;50.908;4.204;2022-12-29T04:00:47;1.30;;;0.87;;
15716;SDS011;7960;50.908;4.204;2022-12-29T04:03:14;2.30;;;1.10;;
15716;SDS011;7960;50.908;4.204;2022-12-29T04:05:41;4.40;;;1.00;;
15716;SDS011;7960;50.908;4.204;2022-12-29T04:08:07;2.07;;;1.10;;
15716;SDS011;7960;50.908;4.204;2022-12-29T04:10:36;3.07;;;1.20;;
15716;SDS011;7960;50.908;4.204;2022-12-29T04:13:02;8.00;;;1.17;;
15716;SDS011;7960;50.908;4.204;2022-12-29T04:15:29;4.90;;;1.17;;
15716;SDS011;7960;50.908;4.204;2022-12-29T04:17:56;2.67;;;1.10;;
15716;SDS011;7960;50.908;4.204;2022-12-29T04:20:23;2.70;;;1.27;;
15716;SDS011;7960;50.908;4.204;2022-12-29T04:23:07;3.47;;;1.00;;
15716;SDS011;7960;50.908;4.204;2022-12-29T04:25:36;1.37;;;1.00;;
15716;SDS011;7960;50.908;4.204;2022-12-29T04:28:02;3.67;;;1.10;;
15716;SDS011;7960;50.908;4.204;2022-12-29T04:30:30;2.90;;;0.90;;
15716;SDS011;7960;50.908;4.204;2022-12-29T04:32:57;4.13;;;1.20;;
15716;SDS011;7960;50.908;4.204;2022-12-29T04:35:24;3.57;;;1.10;;
15716;SDS011;7960;50.908;4.204;2022-12-29T04:37:51;1.33;;;0.80;;
15716;SDS011;7960;50.908;4.204;2022-12-29T04:40:18;3.37;;;1.30;;
15716;SDS011;7960;50.908;4.204;2022-12-29T04:42:47;2.07;;;1.13;;
15716;SDS011;7960;50.908;4.204;2022-12-29T04:45:14;4.60;;;1.10;;
15716;SDS011;7960;50.908;4.204;2022-12-29T04:47:41;2.10;;;1.00;;
15716;SDS011;7960;50.908;4.204;2022-12-29T04:50:08;3.03;;;1.10;;
15716;SDS011;7960;50.908;4.204;2022-12-29T04:52:36;3.30;;;1.00;;
15716;SDS011;7960;50.908;4.204;2022-12-29T04:55:04;2.53;;;1.00;;
15716;SDS011;7960;50.908;4.204;2022-12-29T04:57:31;3.87;;;1.23;;
15716;SDS011;7960;50.908;4.204;2022-12-29T04:59:59;3.67;;;1.33;;
15716;SDS011;7960;50.908;4.204;2022-12-29T05:02:26;4.03;;;1.27;;
15716;SDS011;7960;50.908;4.204;2022-12-29T05:04:53;1.50;;;1.13;;
15716;SDS011;7960;50.908;4.204;2022-12-29T05:07:20;3.07;;;1.20;;
15716;SDS011;7960;50.908;4.204;2022-12-29T05:09:47;2.93;;;1.10;;
15716;SDS011;7960;50.908;4.204;2022-12-29T05:12:13;4.00;;;1.40;;
15716;SDS011;7960;50.908;4.204;2022-12-29T05:14:40;3.77;;;1.00;;
15716;SDS011;7960;50.908;4.204;2022-12-29T05:17:08;4.50;;;1.53;;
15716;SDS011;7960;50.908;4.204;2022-12-29T05:19:35;4.87;;;1.60;;
15716;SDS011;7960;50.908;4.204;2022-12-29T05:22:03;4.00;;;1.03;;
15716;SDS011;7960;50.908;4.204;2022-12-29T05:24:30;5.20;;;1.80;;
15716;SDS011;7960;50.908;4.204;2022-12-29T05:26:56;4.87;;;1.17;;
15716;SDS011;7960;50.908;4.204;2022-12-29T05:29:23;4.00;;;1.40;;
15716;SDS011;7960;50.908;4.204;2022-12-29T05:31:50;6.53;;;1.50;;
15716;SDS011;7960;50.908;4.204;2022-12-29T05:34:18;5.70;;;1.60;;
15716;SDS011;7960;50.908;4.204;2022-12-29T05:36:45;4.03;;;1.43;;
15716;SDS011;7960;50.908;4.204;2022-12-29T05:39:12;3.93;;;1.30;;
15716;SDS011;7960;50.908;4.204;2022-12-29T05:41:39;2.83;;;1.10;;
15716;SDS011;7960;50.908;4.204;2022-12-29T05:44:05;7.63;;;2.07;;
15716;SDS011;7960;50.908;4.204;2022-12-29T05:46:32;6.07;;;1.37;;
15716;SDS011;7960;50.908;4.204;2022-12-29T05:48:59;5.37;;;1.60;;
15716;SDS011;7960;50.908;4.204;2022-12-29T05:51:27;4.43;;;1.60;;
15716;SDS011;7960;50.908;4.204;2022-12-29T05:53:54;8.77;;;1.80;;
15716;SDS011;7960;50.908;4.204;2022-12-29T05:56:21;5.27;;;1.27;;
15716;SDS011;7960;50.908;4.204;2022-12-29T05:58:48;4.43;;;1.30;;
15716;SDS011;7960;50.908;4.204;2022-12-29T06:01:14;3.47;;;0.90;;
15716;SDS011;7960;50.908;4.204;2022-12-29T06:03:41;2.73;;;1.03;;
15716;SDS011;7960;50.908;4.204;2022-12-29T06:06:09;5.60;;;1.40;;
15716;SDS011;7960;50.908;4.204;2022-12-29T06:08:37;4.93;;;1.70;;
15716;SDS011;7960;50.908;4.204;2022-12-29T06:11:05;8.40;;;1.97;;
15716;SDS011;7960;50.908;4.204;2022-12-29T06:13:31;5.43;;;1.43;;
15716;SDS011;7960;50.908;4.204;2022-12-29T06:15:58;3.90;;;1.40;;
15716;SDS011;7960;50.908;4.204;2022-12-29T06:18:25;4.57;;;1.70;;
15716;SDS011;7960;50.908;4.204;2022-12-29T06:20:52;6.73;;;1.67;;
15716;SDS011;7960;50.908;4.204;2022-12-29T06:23:19;8.73;;;1.90;;
15716;SDS011;7960;50.908;4.204;2022-12-29T06:25:48;3.90;;;1.50;;
15716;SDS011;7960;50.908;4.204;2022-12-29T06:28:15;10.03;;;1.50;;
15716;SDS011;7960;50.908;4.204;2022-12-29T06:30:43;6.80;;;1.90;;
15716;SDS011;7960;50.908;4.204;2022-12-29T06:33:11;7.60;;;1.97;;
15716;SDS011;7960;50.908;4.204;2022-12-29T06:35:38;7.77;;;1.50;;
15716;SDS011;7960;50.908;4.204;2022-12-29T06:38:04;4.40;;;1.30;;
15716;SDS011;7960;50.908;4.204;2022-12-29T06:40:31;5.10;;;1.70;;
15716;SDS011;7960;50.908;4.204;2022-12-29T06:42:59;8.27;;;2.10;;
15716;SDS011;7960;50.908;4.204;2022-12-29T06:45:26;4.50;;;1.57;;
15716;SDS011;7960;50.908;4.204;2022-12-29T06:47:53;5.43;;;1.90;;
15716;SDS011;7960;50.908;4.204;2022-12-29T06:50:20;8.63;;;2.10;;
15716;SDS011;7960;50.908;4.204;2022-12-29T06:52:47;3.70;;;1.20;;
15716;SDS011;7960;50.908;4.204;2022-12-29T06:55:13;4.50;;;1.37;;
15716;SDS011;7960;50.908;4.204;2022-12-29T06:57:41;7.00;;;1.87;;
15716;SDS011;7960;50.908;4.204;2022-12-29T07:00:10;4.17;;;1.37;;
15716;SDS011;7960;50.908;4.204;2022-12-29T07:02:37;2.57;;;1.27;;
15716;SDS011;7960;50.908;4.204;2022-12-29T07:05:04;6.83;;;1.27;;
15716;SDS011;7960;50.908;4.204;2022-12-29T07:07:32;2.07;;;0.70;;
15716;SDS011;7960;50.908;4.204;2022-12-29T07:09:59;11.77;;;1.90;;
15716;SDS011;7960;50.908;4.204;2022-12-29T07:12:26;5.20;;;1.80;;
15716;SDS011;7960;50.908;4.204;2022-12-29T07:14:53;6.67;;;1.90;;
15716;SDS011;7960;50.908;4.204;2022-12-29T07:17:21;9.57;;;1.93;;
15716;SDS011;7960;50.908;4.204;2022-12-29T07:19:48;3.37;;;1.27;;
15716;SDS011;7960;50.908;4.204;2022-12-29T07:22:14;3.13;;;1.10;;
15716;SDS011;7960;50.908;4.204;2022-12-29T07:24:41;5.77;;;1.60;;
15716;SDS011;7960;50.908;4.204;2022-12-29T07:27:08;8.13;;;1.70;;
15716;SDS011;7960;50.908;4.204;2022-12-29T07:29:36;2.43;;;1.40;;
15716;SDS011;7960;50.908;4.204;2022-12-29T07:32:03;5.27;;;1.40;;
15716;SDS011;7960;50.908;4.204;2022-12-29T07:34:31;4.73;;;1.60;;
15716;SDS011;7960;50.908;4.204;2022-12-29T07:36:58;6.50;;;1.80;;
15716;SDS011;7960;50.908;4.204;2022-12-29T07:39:25;8.17;;;1.80;;
15716;SDS011;7960;50.908;4.204;2022-12-29T07:41:52;8.60;;;2.00;;
15716;SDS011;7960;50.908;4.204;2022-12-29T07:44:18;5.27;;;2.00;;
15716;SDS011;7960;50.908;4.204;2022-12-29T07:46:45;6.43;;;2.10;;
15716;SDS011;7960;50.908;4.204;2022-12-29T07:49:12;5.37;;;1.90;;
15716;SDS011;7960;50.908;4.204;2022-12-29T07:51:40;3.13;;;1.37;;
15716;SDS011;7960;50.908;4.204;2022-12-29T07:54:08;5.57;;;1.70;;
15716;SDS011;7960;50.908;4.204;2022-12-29T07:56:35;5.23;;;1.83;;
15716;SDS011;7960;50.908;4.204;2022-12-29T07:59:01;5.30;;;1.70;;
15716;SDS011;7960;50.908;4.204;2022-12-29T08:01:31;5.53;;;1.77;;
15716;SDS011;7960;50.908;4.204;2022-12-29T08:03:58;7.77;;;1.77;;
15716;SDS011;7960;50.908;4.204;2022-12-29T08:06:25;6.57;;;1.67;;
15716;SDS011;7960;50.908;4.204;2022-12-29T08:08:55;5.97;;;1.80;;
15716;SDS011;7960;50.908;4.204;2022-12-29T08:11:22;6.83;;;1.70;;
15716;SDS011;7960;50.908;4.204;2022-12-29T08:13:49;9.30;;;2.27;;
15716;SDS011;7960;50.908;4.204;2022-12-29T08:16:17;4.77;;;2.10;;
15716;SDS011;7960;50.908;4.204;2022-12-29T08:18:44;5.77;;;1.70;;
15716;SDS011;7960;50.908;4.204;2022-12-29T08:21:11;10.97;;;1.50;;
15716;SDS011;7960;50.908;4.204;2022-12-29T08:23:44;7.80;;;1.70;;
15716;SDS011;7960;50.908;4.204;2022-12-29T08:26:19;9.17;;;2.10;;
15716;SDS011;7960;50.908;4.204;2022-12-29T08:28:46;8.03;;;2.27;;
15716;SDS011;7960;50.908;4.204;2022-12-29T08:31:16;7.83;;;1.80;;
15716;SDS011;7960;50.908;4.204;2022-12-29T08:33:43;11.43;;;2.33;;
15716;SDS011;7960;50.908;4.204;2022-12-29T08:36:10;7.87;;;1.90;;
15716;SDS011;7960;50.908;4.204;2022-12-29T08:38:37;3.17;;;1.57;;
15716;SDS011;7960;50.908;4.204;2022-12-29T08:41:10;8.03;;;2.00;;
15716;SDS011;7960;50.908;4.204;2022-12-29T08:43:38;9.63;;;2.37;;
15716;SDS011;7960;50.908;4.204;2022-12-29T08:46:07;7.97;;;2.33;;
15716;SDS011;7960;50.908;4.204;2022-12-29T08:48:34;6.70;;;2.10;;
15716;SDS011;7960;50.908;4.204;2022-12-29T08:51:00;6.80;;;1.93;;
15716;SDS011;7960;50.908;4.204;2022-12-29T08:53:27;11.27;;;2.00;;
15716;SDS011;7960;50.908;4.204;2022-12-29T08:55:55;11.00;;;2.53;;
15716;SDS011;7960;50.908;4.204;2022-12-29T08:58:23;4.77;;;1.70;;
15716;SDS011;7960;50.908;4.204;2022-12-29T09:00:53;10.17;;;1.90;;
15716;SDS011;7960;50.908;4.204;2022-12-29T09:03:20;9.57;;;2.03;;
15716;SDS011;7960;50.908;4.204;2022-12-29T09:05:47;8.40;;;2.33;;
15716;SDS011;7960;50.908;4.204;2022-12-29T09:08:16;4.13;;;1.70;;
15716;SDS011;7960;50.908;4.204;2022-12-29T09:10:44;5.47;;;1.30;;
15716;SDS011;7960;50.908;4.204;2022-12-29T09:13:12;9.60;;;1.90;;
15716;SDS011;7960;50.908;4.204;2022-12-29T09:15:39;7.00;;;1.80;;
15716;SDS011;7960;50.908;4.204;2022-12-29T09:18:09;2.70;;;1.37;;
15716;SDS011;7960;50.908;4.204;2022-12-29T09:20:37;9.43;;;2.00;;
15716;SDS011;7960;50.908;4.204;2022-12-29T09:23:04;6.27;;;1.53;;
15716;SDS011;7960;50.908;4.204;2022-12-29T09:25:32;10.17;;;2.03;;
15716;SDS011;7960;50.908;4.204;2022-12-29T09:27:59;4.50;;;1.93;;
15716;SDS011;7960;50.908;4.204;2022-12-29T09:30:29;9.17;;;1.60;;
15716;SDS011;7960;50.908;4.204;2022-12-29T09:32:55;8.20;;;1.53;;
15716;SDS011;7960;50.908;4.204;2022-12-29T09:35:24;6.87;;;1.53;;
15716;SDS011;7960;50.908;4.204;2022-12-29T09:37:51;5.23;;;1.60;;
15716;SDS011;7960;50.908;4.204;2022-12-29T09:40:22;7.90;;;2.23;;
15716;SDS011;7960;50.908;4.204;2022-12-29T09:42:57;6.27;;;1.80;;
15716;SDS011;7960;50.908;4.204;2022-12-29T09:45:32;7.27;;;2.17;;
15716;SDS011;7960;50.908;4.204;2022-12-29T09:48:03;6.77;;;2.10;;
15716;SDS011;7960;50.908;4.204;2022-12-29T09:50:34;6.00;;;1.97;;
15716;SDS011;7960;50.908;4.204;2022-12-29T09:53:04;6.57;;;2.03;;
15716;SDS011;7960;50.908;4.204;2022-12-29T09:55:38;9.13;;;2.33;;
15716;SDS011;7960;50.908;4.204;2022-12-29T09:58:10;8.27;;;2.33;;
15716;SDS011;7960;50.908;4.204;2022-12-29T10:00:43;6.00;;;2.00;;
15716;SDS011;7960;50.908;4.204;2022-12-29T10:03:16;4.70;;;1.57;;
15716;SDS011;7960;50.908;4.204;2022-12-29T10:05:48;7.20;;;1.73;;
15716;SDS011;7960;50.908;4.204;2022-12-29T10:08:23;7.00;;;2.20;;
15716;SDS011;7960;50.908;4.204;2022-12-29T10:10:56;15.53;;;2.23;;
15716;SDS011;7960;50.908;4.204;2022-12-29T10:13:28;8.50;;;2.03;;
15716;SDS011;7960;50.908;4.204;2022-12-29T10:16:09;8.40;;;2.67;;
15716;SDS011;7960;50.908;4.204;2022-12-29T10:21:39;7.00;;;1.97;;
15716;SDS011;7960;50.908;4.204;2022-12-29T10:24:13;8.17;;;1.77;;
15716;SDS011;7960;50.908;4.204;2022-12-29T10:26:42;5.67;;;2.17;;
15716;SDS011;7960;50.908;4.204;2022-12-29T10:29:13;8.50;;;2.27;;
15716;SDS011;7960;50.908;4.204;2022-12-29T10:31:44;6.17;;;1.83;;
15716;SDS011;7960;50.908;4.204;2022-12-29T10:34:15;7.90;;;2.47;;
15716;SDS011;7960;50.908;4.204;2022-12-29T10:36:48;10.77;;;2.57;;
15716;SDS011;7960;50.908;4.204;2022-12-29T10:39:19;8.40;;;2.23;;
15716;SDS011;7960;50.908;4.204;2022-12-29T10:41:49;5.27;;;1.80;;
15716;SDS011;7960;50.908;4.204;2022-12-29T10:44:22;5.37;;;2.00;;
15716;SDS011;7960;50.908;4.204;2022-12-29T10:46:55;12.63;;;2.00;;
15716;SDS011;7960;50.908;4.204;2022-12-29T10:49:26;9.10;;;1.90;;
15716;SDS011;7960;50.908;4.204;2022-12-29T10:51:58;14.80;;;2.93;;
15716;SDS011;7960;50.908;4.204;2022-12-29T10:54:29;7.87;;;1.90;;
15716;SDS011;7960;50.908;4.204;2022-12-29T10:57:00;4.97;;;1.90;;
15716;SDS011;7960;50.908;4.204;2022-12-29T10:59:31;5.97;;;1.80;;
15716;SDS011;7960;50.908;4.204;2022-12-29T11:02:02;7.07;;;2.33;;
15716;SDS011;7960;50.908;4.204;2022-12-29T11:04:54;6.77;;;1.87;;
15716;SDS011;7960;50.908;4.204;2022-12-29T11:07:28;9.03;;;2.00;;
15716;SDS011;7960;50.908;4.204;2022-12-29T11:12:55;11.60;;;2.20;;
15716;SDS011;7960;50.908;4.204;2022-12-29T11:15:23;11.53;;;1.90;;
15716;SDS011;7960;50.908;4.204;2022-12-29T11:17:52;6.63;;;1.63;;
15716;SDS011;7960;50.908;4.204;2022-12-29T11:20:27;5.90;;;1.73;;
15716;SDS011;7960;50.908;4.204;2022-12-29T11:22:57;5.50;;;1.90;;
15716;SDS011;7960;50.908;4.204;2022-12-29T11:25:25;11.40;;;1.90;;
15716;SDS011;7960;50.908;4.204;2022-12-29T11:27:56;7.17;;;1.90;;
15716;SDS011;7960;50.908;4.204;2022-12-29T11:30:25;11.63;;;2.00;;
15716;SDS011;7960;50.908;4.204;2022-12-29T11:32:54;7.07;;;1.77;;
15716;SDS011;7960;50.908;4.204;2022-12-29T11:35:29;6.17;;;2.40;;
15716;SDS011;7960;50.908;4.204;2022-12-29T11:37:59;8.23;;;2.00;;
15716;SDS011;7960;50.908;4.204;2022-12-29T11:40:27;7.67;;;2.03;;
15716;SDS011;7960;50.908;4.204;2022-12-29T11:42:55;8.20;;;2.47;;
15716;SDS011;7960;50.908;4.204;2022-12-29T11:45:25;6.60;;;2.20;;
15716;SDS011;7960;50.908;4.204;2022-12-29T11:47:55;6.60;;;2.20;;
15716;SDS011;7960;50.908;4.204;2022-12-29T11:50:25;5.97;;;2.30;;
15716;SDS011;7960;50.908;4.204;2022-12-29T11:52:59;6.07;;;1.93;;
15716;SDS011;7960;50.908;4.204;2022-12-29T11:55:31;10.23;;;2.30;;
15716;SDS011;7960;50.908;4.204;2022-12-29T11:58:00;8.17;;;2.60;;
15716;SDS011;7960;50.908;4.204;2022-12-29T12:00:30;6.40;;;2.23;;
15716;SDS011;7960;50.908;4.204;2022-12-29T12:03:00;7.90;;;2.20;;
15716;SDS011;7960;50.908;4.204;2022-12-29T12:05:35;8.30;;;2.60;;
15716;SDS011;7960;50.908;4.204;2022-12-29T12:08:10;8.83;;;2.23;;
15716;SDS011;7960;50.908;4.204;2022-12-29T12:10:42;7.93;;;2.37;;
15716;SDS011;7960;50.908;4.204;2022-12-29T12:13:16;6.57;;;2.20;;
15716;SDS011;7960;50.908;4.204;2022-12-29T12:15:47;9.10;;;2.80;;
15716;SDS011;7960;50.908;4.204;2022-12-29T12:18:21;8.63;;;2.50;;
15716;SDS011;7960;50.908;4.204;2022-12-29T12:20:58;4.43;;;1.73;;
15716;SDS011;7960;50.908;4.204;2022-12-29T12:23:35;9.37;;;2.10;;
15716;SDS011;7960;50.908;4.204;2022-12-29T12:26:09;5.43;;;2.20;;
15716;SDS011;7960;50.908;4.204;2022-12-29T12:28:40;6.43;;;2.10;;
15716;SDS011;7960;50.908;4.204;2022-12-29T12:31:17;5.87;;;2.10;;
15716;SDS011;7960;50.908;4.204;2022-12-29T12:33:53;7.50;;;2.43;;
15716;SDS011;7960;50.908;4.204;2022-12-29T12:36:34;5.73;;;2.10;;
15716;SDS011;7960;50.908;4.204;2022-12-29T12:39:23;6.83;;;1.83;;
15716;SDS011;7960;50.908;4.204;2022-12-29T12:41:56;7.00;;;2.20;;
15716;SDS011;7960;50.908;4.204;2022-12-29T12:44:35;6.93;;;2.10;;
15716;SDS011;7960;50.908;4.204;2022-12-29T12:47:20;3.10;;;1.43;;
15716;SDS011;7960;50.908;4.204;2022-12-29T12:50:12;6.50;;;2.03;;
15716;SDS011;7960;50.908;4.204;2022-12-29T12:52:52;6.50;;;2.00;;
15716;SDS011;7960;50.908;4.204;2022-12-29T12:55:39;7.40;;;2.00;;
15716;SDS011;7960;50.908;4.204;2022-12-29T12:58:24;9.00;;;2.20;;
15716;SDS011;7960;50.908;4.204;2022-12-29T13:01:02;7.47;;;2.20;;
15716;SDS011;7960;50.908;4.204;2022-12-29T13:03:47;8.17;;;1.93;;
15716;SDS011;7960;50.908;4.204;2022-12-29T13:06:26;7.43;;;2.43;;
15716;SDS011;7960;50.908;4.204;2022-12-29T13:09:08;4.17;;;1.70;;
15716;SDS011;7960;50.908;4.204;2022-12-29T13:11:51;7.30;;;2.23;;
15716;SDS011;7960;50.908;4.204;2022-12-29T13:14:33;5.70;;;1.80;;
15716;SDS011;7960;50.908;4.204;2022-12-29T13:17:11;6.27;;;2.10;;
15716;SDS011;7960;50.908;4.204;2022-12-29T13:19:45;5.47;;;1.83;;
15716;SDS011;7960;50.908;4.204;2022-12-29T13:22:20;6.47;;;1.80;;
15716;SDS011;7960;50.908;4.204;2022-12-29T13:24:55;8.33;;;1.70;;
15716;SDS011;7960;50.908;4.204;2022-12-29T13:27:34;6.40;;;1.83;;
15716;SDS011;7960;50.908;4.204;2022-12-29T13:30:11;3.60;;;1.37;;
15716;SDS011;7960;50.908;4.204;2022-12-29T13:32:45;2.83;;;1.50;;
15716;SDS011;7960;50.908;4.204;2022-12-29T13:35:24;9.40;;;2.40;;
15716;SDS011;7960;50.908;4.204;2022-12-29T13:37:57;7.50;;;2.03;;
15716;SDS011;7960;50.908;4.204;2022-12-29T13:40:28;4.70;;;1.97;;
15716;SDS011;7960;50.908;4.204;2022-12-29T13:43:05;6.77;;;2.07;;
15716;SDS011;7960;50.908;4.204;2022-12-29T13:45:32;7.53;;;1.97;;
15716;SDS011;7960;50.908;4.204;2022-12-29T13:48:01;5.50;;;1.60;;
15716;SDS011;7960;50.908;4.204;2022-12-29T13:50:33;6.40;;;2.47;;
15716;SDS011;7960;50.908;4.204;2022-12-29T13:53:04;4.90;;;2.00;;
15716;SDS011;7960;50.908;4.204;2022-12-29T13:55:37;8.23;;;2.70;;
15716;SDS011;7960;50.908;4.204;2022-12-29T13:58:09;9.70;;;2.40;;
15716;SDS011;7960;50.908;4.204;2022-12-29T14:00:46;8.07;;;2.60;;
15716;SDS011;7960;50.908;4.204;2022-12-29T14:03:24;9.57;;;2.70;;
15716;SDS011;7960;50.908;4.204;2022-12-29T14:06:14;9.00;;;2.50;;
15716;SDS011;7960;50.908;4.204;2022-12-29T14:08:44;11.70;;;2.80;;
15716;SDS011;7960;50.908;4.204;2022-12-29T14:11:12;5.20;;;1.60;;
15716;SDS011;7960;50.908;4.204;2022-12-29T14:13:44;3.90;;;1.47;;
15716;SDS011;7960;50.908;4.204;2022-12-29T14:16:23;4.73;;;1.57;;
15716;SDS011;7960;50.908;4.204;2022-12-29T14:18:56;1.83;;;0.87;;
15716;SDS011;7960;50.908;4.204;2022-12-29T14:21:31;2.53;;;1.30;;
15716;SDS011;7960;50.908;4.204;2022-12-29T14:30:07;1.23;;;0.80;;
15716;SDS011;7960;50.908;4.204;2022-12-29T14:33:24;4.83;;;1.00;;
15716;SDS011;7960;50.908;4.204;2022-12-29T14:35:54;4.30;;;1.03;;
15716;SDS011;7960;50.908;4.204;2022-12-29T14:38:25;6.30;;;1.50;;
15716;SDS011;7960;50.908;4.204;2022-12-29T14:41:15;5.23;;;1.97;;
15716;SDS011;7960;50.908;4.204;2022-12-29T14:44:10;4.73;;;1.50;;
15716;SDS011;7960;50.908;4.204;2022-12-29T14:46:54;8.73;;;1.63;;
15716;SDS011;7960;50.908;4.204;2022-12-29T14:49:23;3.50;;;1.60;;
15716;SDS011;7960;50.908;4.204;2022-12-29T14:51:52;2.67;;;1.40;;
15716;SDS011;7960;50.908;4.204;2022-12-29T14:54:43;3.40;;;1.00;;
15716;SDS011;7960;50.908;4.204;2022-12-29T14:57:18;5.73;;;2.03;;
15716;SDS011;7960;50.908;4.204;2022-12-29T15:00:00;3.53;;;1.30;;
15716;SDS011;7960;50.908;4.204;2022-12-29T15:02:36;4.90;;;1.20;;
15716;SDS011;7960;50.908;4.204;2022-12-29T15:05:10;6.17;;;1.93;;
15716;SDS011;7960;50.908;4.204;2022-12-29T15:07:51;5.57;;;1.40;;
15716;SDS011;7960;50.908;4.204;2022-12-29T15:10:19;8.07;;;1.80;;
15716;SDS011;7960;50.908;4.204;2022-12-29T15:12:49;7.87;;;2.33;;
15716;SDS011;7960;50.908;4.204;2022-12-29T15:15:19;10.27;;;2.43;;
15716;SDS011;7960;50.908;4.204;2022-12-29T15:17:50;7.53;;;2.37;;
15716;SDS011;7960;50.908;4.204;2022-12-29T15:20:21;2.47;;;1.37;;
15716;SDS011;7960;50.908;4.204;2022-12-29T15:22:51;5.33;;;1.87;;
15716;SDS011;7960;50.908;4.204;2022-12-29T15:25:22;9.20;;;1.93;;
15716;SDS011;7960;50.908;4.204;2022-12-29T15:27:51;3.97;;;1.40;;
15716;SDS011;7960;50.908;4.204;2022-12-29T15:30:19;9.13;;;2.20;;
15716;SDS011;7960;50.908;4.204;2022-12-29T15:32:47;3.83;;;1.43;;
15716;SDS011;7960;50.908;4.204;2022-12-29T15:35:26;3.37;;;1.53;;
15716;SDS011;7960;50.908;4.204;2022-12-29T15:37:56;8.37;;;2.57;;